Time;durP1;ratioP1;P1;durP2;ratioP2;P2;SDS_P1;SDS_P2;PMS_P1;PMS_P2;Temp;Humidity;BMP_temperature;BMP_pressure;BME280_temperature;BME280_humidity;BME280_pressure;Samples;Min_cycle;Max_cycle;Signal;HPM_P1;HPM_P2
2020/12/02 00:00:13;;;;;;;;;;;;;;;4.70;69.13;95298.53;5093631;28;19955;-81
2020/12/02 00:02:41;;;;;;;;;;;;;;;4.63;68.94;95299.84;5075010;28;20002;-81
2020/12/02 00:05:09;;;;;;;;;;;;;;;4.65;69.35;95300.38;5076058;28;19916;-81
2020/12/02 00:07:35;;;;;;;;;;;;;;;4.69;69.12;95290.91;5075736;28;20293;-81
2020/12/02 00:10:00;;;;;;;;;;;;;;;4.74;69.37;95292.75;5075483;28;19920;-81
2020/12/02 00:12:26;;;;;;;;;;;;;;;4.77;69.06;95300.13;5075403;28;19919;-82
2020/12/02 00:14:51;;;;;;;;;;;;;;;4.81;69.28;95304.63;5075548;28;19923;-81
2020/12/02 00:17:18;;;;;;;;;;;;;;;4.85;69.21;95305.66;5075679;28;19920;-81
2020/12/02 00:19:45;;;;;;;;;;;;;;;4.88;69.08;95302.50;5075244;28;19912;-80
2020/12/02 00:22:12;;;;;;;;;;;;;;;4.83;68.46;95302.50;5093306;28;19938;-80
2020/12/02 00:24:38;;;;;;;;;;;;;;;4.76;68.54;95306.44;5075974;28;19916;-81
2020/12/02 00:27:08;;;;;;;;;;;;;;;4.46;69.32;95307.22;5075576;28;19916;-82
2020/12/02 00:29:33;;;;;;;;;;;;;;;4.37;69.67;95306.94;5074693;28;19920;-81
2020/12/02 00:31:59;;;;;;;;;;;;;;;4.16;70.36;95303.47;5075026;28;20003;-80
2020/12/02 00:34:24;;;;;;;;;;;;;;;3.91;70.81;95304.94;5075366;28;19920;-81
2020/12/02 00:36:49;;;;;;;;;;;;;;;3.34;72.81;95292.56;5075235;28;20073;-81
2020/12/02 00:39:14;;;;;;;;;;;;;;;3.55;73.00;95290.06;5075066;28;20335;-81
2020/12/02 00:41:40;;;;;;;;;;;;;;;3.70;72.68;95289.34;5093159;28;19927;-78
2020/12/02 00:44:05;;;;;;;;;;;;;;;3.87;72.51;95295.97;5075344;28;20395;-81
2020/12/02 00:46:32;;;;;;;;;;;;;;;3.98;72.11;95294.16;5075210;28;19922;-81
2020/12/02 00:48:57;;;;;;;;;;;;;;;4.04;71.52;95294.97;5075197;28;19995;-81
2020/12/02 00:51:23;;;;;;;;;;;;;;;3.98;71.05;95296.81;5075432;28;19951;-81
2020/12/02 00:53:48;;;;;;;;;;;;;;;3.89;71.64;95298.38;5075355;28;19920;-81
2020/12/02 00:56:14;;;;;;;;;;;;;;;3.54;72.37;95293.75;5075126;28;19916;-80
2020/12/02 00:58:52;;;;;;;;;;;;;;;3.22;73.44;95286.69;5075416;28;20361;-81
2020/12/02 01:01:23;;;;;;;;;;;;;;;3.10;73.91;95289.53;5074900;28;20024;-81
2020/12/02 01:03:49;;;;;;;;;;;;;;;3.00;73.97;95288.66;5058179;28;19916;-81
2020/12/02 01:06:15;;;;;;;;;;;;;;;2.84;75.45;95287.75;5075034;28;19923;-82
2020/12/02 01:08:41;;;;;;;;;;;;;;;2.84;75.46;95298.25;5074943;28;19927;-81
2020/12/02 01:11:10;;;;;;;;;;;;;;;2.75;76.30;95284.78;5075133;28;20098;-80
2020/12/02 01:13:37;;;;;;;;;;;;;;;2.95;75.46;95291.25;5075039;28;19952;-81
2020/12/02 01:16:06;;;;;;;;;;;;;;;2.94;75.05;95295.72;5092959;28;19923;-80
2020/12/02 01:18:31;;;;;;;;;;;;;;;2.89;74.90;95295.69;5074473;28;19916;-81
2020/12/02 01:21:01;;;;;;;;;;;;;;;2.81;75.51;95293.50;5075060;28;19927;-80
2020/12/02 01:23:28;;;;;;;;;;;;;;;2.65;76.11;95294.44;5074769;28;19916;-81
2020/12/02 01:25:54;;;;;;;;;;;;;;;2.91;75.54;95288.31;5092726;28;19916;-80
2020/12/02 01:28:22;;;;;;;;;;;;;;;2.96;73.82;95292.84;5074686;28;19916;-81
2020/12/02 01:30:48;;;;;;;;;;;;;;;2.98;74.23;95288.13;5075067;28;19958;-81
2020/12/02 01:33:15;;;;;;;;;;;;;;;2.96;74.10;95280.47;5074063;28;19917;-80
2020/12/02 01:35:42;;;;;;;;;;;;;;;2.97;73.40;95286.53;5092457;28;19969;-80
2020/12/02 01:38:07;;;;;;;;;;;;;;;2.95;72.65;95283.38;5074888;28;19916;-81
2020/12/02 01:40:33;;;;;;;;;;;;;;;2.89;72.81;95284.38;5076501;28;19981;-81
2020/12/02 01:43:04;;;;;;;;;;;;;;;2.52;74.24;95275.44;5078148;28;19916;-81
2020/12/02 01:45:37;;;;;;;;;;;;;;;2.47;74.75;95279.84;5078298;28;19916;-82
2020/12/02 01:48:11;;;;;;;;;;;;;;;2.81;73.77;95281.16;5078173;28;19934;-78
2020/12/02 01:50:39;;;;;;;;;;;;;;;2.84;73.07;95282.50;5077989;28;19974;-81
2020/12/02 01:53:24;;;;;;;;;;;;;;;2.49;74.00;95275.13;5077909;28;19912;-81
2020/12/02 01:56:01;;;;;;;;;;;;;;;2.71;73.63;95275.03;5078118;28;20012;-81
2020/12/02 01:58:45;;;;;;;;;;;;;;;2.41;73.85;95268.50;5077758;28;19912;-79
2020/12/02 02:01:16;;;;;;;;;;;;;;;2.55;73.80;95268.88;5095771;28;19924;-80
2020/12/02 02:03:41;;;;;;;;;;;;;;;2.71;73.39;95272.41;5095625;28;19916;-81
2020/12/02 02:06:15;;;;;;;;;;;;;;;2.85;72.61;95270.94;5077964;28;19924;-81
2020/12/02 02:08:42;;;;;;;;;;;;;;;2.69;71.90;95277.13;5095678;28;19924;-77
2020/12/02 02:11:12;;;;;;;;;;;;;;;2.68;72.21;95275.56;5077634;28;20331;-81
2020/12/02 02:13:40;;;;;;;;;;;;;;;2.48;72.42;95274.34;5077628;28;19916;-81
2020/12/02 02:16:08;;;;;;;;;;;;;;;2.41;72.84;95273.75;5095673;28;19967;-81
2020/12/02 02:18:33;;;;;;;;;;;;;;;2.43;72.92;95276.91;5077685;28;19920;-78
2020/12/02 02:21:04;;;;;;;;;;;;;;;2.07;73.02;95278.41;5095513;28;20373;-81
2020/12/02 02:23:29;;;;;;;;;;;;;;;2.40;73.12;95282.66;5077048;28;20309;-81
2020/12/02 02:25:59;;;;;;;;;;;;;;;2.34;72.56;95278.41;5077427;28;19924;-81
2020/12/02 02:28:25;;;;;;;;;;;;;;;2.33;72.60;95274.19;5077225;28;19923;-82
2020/12/02 02:30:50;;;;;;;;;;;;;;;2.46;72.34;95260.69;5077373;28;19959;-80
2020/12/02 02:33:16;;;;;;;;;;;;;;;2.40;71.66;95266.09;5076527;28;19920;-80
2020/12/02 02:35:41;;;;;;;;;;;;;;;2.34;72.13;95271.31;5077114;28;20281;-81
2020/12/02 02:38:07;;;;;;;;;;;;;;;2.52;72.52;95267.56;5077387;28;19916;-79
2020/12/02 02:40:33;;;;;;;;;;;;;;;2.64;71.72;95267.38;5077066;28;20285;-81
2020/12/02 02:43:02;;;;;;;;;;;;;;;2.44;71.08;95272.44;5076627;28;20003;-80
2020/12/02 02:45:27;;;;;;;;;;;;;;;2.12;71.74;95257.47;5077039;28;19916;-80
2020/12/02 02:47:53;;;;;;;;;;;;;;;2.06;71.88;95269.75;5077065;28;19912;-80
2020/12/02 02:50:19;;;;;;;;;;;;;;;2.15;72.05;95270.09;5076642;28;19924;-80
2020/12/02 02:52:44;;;;;;;;;;;;;;;2.24;71.92;95267.81;5094177;28;19912;-80
2020/12/02 02:55:11;;;;;;;;;;;;;;;2.05;71.77;95262.91;5076881;28;19943;-80
2020/12/02 02:57:37;;;;;;;;;;;;;;;2.19;71.40;95265.13;5076855;28;19920;-80
2020/12/02 03:00:05;;;;;;;;;;;;;;;2.16;70.97;95263.81;5094926;28;19920;-79
2020/12/02 03:02:30;;;;;;;;;;;;;;;1.96;71.27;95256.53;5076095;28;19920;-80
2020/12/02 03:04:56;;;;;;;;;;;;;;;1.78;71.98;95259.44;5077104;28;20366;-80
2020/12/02 03:07:21;;;;;;;;;;;;;;;1.90;71.66;95252.25;5076152;28;19966;-78
2020/12/02 03:09:46;;;;;;;;;;;;;;;1.97;71.45;95258.09;5094043;28;19971;-78
2020/12/02 03:12:11;;;;;;;;;;;;;;;2.03;71.27;95256.31;5093921;28;19920;-77
2020/12/02 03:14:41;;;;;;;;;;;;;;;1.80;71.42;95255.56;5076164;28;19931;-78
2020/12/02 03:17:09;;;;;;;;;;;;;;;1.86;71.59;95245.91;5075913;28;19916;-78
2020/12/02 03:19:34;;;;;;;;;;;;;;;1.97;71.54;95242.34;5093848;28;19916;-78
2020/12/02 03:22:03;;;;;;;;;;;;;;;1.97;71.65;95244.97;5075936;28;20288;-78
2020/12/02 03:24:29;;;;;;;;;;;;;;;2.23;71.33;95239.97;5093830;28;19916;-76
2020/12/02 03:26:54;;;;;;;;;;;;;;;1.96;71.52;95247.84;5074836;28;19969;-78
2020/12/02 03:29:20;;;;;;;;;;;;;;;1.81;71.61;95243.25;5092672;28;19941;-78
2020/12/02 03:31:45;;;;;;;;;;;;;;;2.02;71.48;95242.41;5075300;28;19916;-78
2020/12/02 03:34:12;;;;;;;;;;;;;;;2.02;70.72;95250.28;5075363;28;19923;-76
2020/12/02 03:36:38;;;;;;;;;;;;;;;1.88;71.29;95254.31;5093571;28;19943;-77
2020/12/02 03:39:04;;;;;;;;;;;;;;;1.52;71.86;95255.75;5075130;28;20376;-77
2020/12/02 03:41:29;;;;;;;;;;;;;;;1.78;72.13;95256.81;5093232;28;19973;-78
2020/12/02 03:43:55;;;;;;;;;;;;;;;1.89;71.24;95255.09;5075523;28;20270;-77
2020/12/02 03:46:20;;;;;;;;;;;;;;;1.82;71.22;95248.22;5075410;28;19920;-78
2020/12/02 03:48:45;;;;;;;;;;;;;;;1.84;71.02;95255.84;5075070;28;19983;-77
2020/12/02 03:51:10;;;;;;;;;;;;;;;1.59;71.99;95247.69;5075327;28;19923;-77
2020/12/02 03:53:35;;;;;;;;;;;;;;;1.62;71.87;95258.47;5093059;28;19916;-78
2020/12/02 03:56:01;;;;;;;;;;;;;;;1.52;71.65;95255.75;5075137;28;19923;-77
2020/12/02 03:58:26;;;;;;;;;;;;;;;1.67;71.76;95252.50;5075012;28;19916;-77
2020/12/02 04:00:51;;;;;;;;;;;;;;;1.08;71.94;95249.69;5093370;28;19923;-78
2020/12/02 04:03:16;;;;;;;;;;;;;;;1.38;71.95;95257.13;5073792;28;19922;-78
2020/12/02 04:05:41;;;;;;;;;;;;;;;1.34;71.22;95251.59;5075182;28;19920;-77
2020/12/02 04:08:07;;;;;;;;;;;;;;;1.32;71.99;95253.66;5075236;28;19912;-78
2020/12/02 04:10:32;;;;;;;;;;;;;;;0.97;72.57;95249.53;5074751;28;19955;-78
2020/12/02 04:12:58;;;;;;;;;;;;;;;0.51;74.09;95256.72;5074830;28;20011;-77
2020/12/02 04:15:23;;;;;;;;;;;;;;;1.03;72.87;95243.34;5093060;28;19977;-77
2020/12/02 04:17:49;;;;;;;;;;;;;;;1.13;72.28;95242.69;5074940;28;19939;-77
2020/12/02 04:20:17;;;;;;;;;;;;;;;1.01;72.27;95241.97;5074934;28;19912;-77
2020/12/02 04:22:45;;;;;;;;;;;;;;;1.09;72.41;95235.56;5057178;28;22290;-77
2020/12/02 04:25:11;;;;;;;;;;;;;;;0.77;72.60;95247.41;5074569;28;20003;-77
2020/12/02 04:27:36;;;;;;;;;;;;;;;0.58;72.97;95233.00;5092875;28;20353;-78
2020/12/02 04:30:04;;;;;;;;;;;;;;;0.82;72.75;95236.22;5074452;28;20380;-77
2020/12/02 04:32:29;;;;;;;;;;;;;;;0.77;72.54;95236.16;5091975;28;20001;-77
2020/12/02 04:34:54;;;;;;;;;;;;;;;0.84;72.21;95236.78;5074399;28;19916;-77
2020/12/02 04:37:19;;;;;;;;;;;;;;;0.94;71.85;95244.78;5092764;28;19928;-77
2020/12/02 04:39:44;;;;;;;;;;;;;;;0.78;71.71;95235.13;5074564;28;19915;-77
2020/12/02 04:42:10;;;;;;;;;;;;;;;0.70;72.08;95232.88;5092306;28;19924;-78
2020/12/02 04:44:36;;;;;;;;;;;;;;;0.94;71.77;95228.28;5074510;28;20049;-78
2020/12/02 04:47:01;;;;;;;;;;;;;;;0.98;71.67;95221.53;5074496;28;19923;-77
2020/12/02 04:49:28;;;;;;;;;;;;;;;0.99;71.49;95234.38;5074318;28;19916;-78
2020/12/02 04:51:59;;;;;;;;;;;;;;;0.49;72.09;95234.41;5074233;28;19939;-77
2020/12/02 04:54:25;;;;;;;;;;;;;;;0.40;72.87;95228.78;5074492;28;19915;-77
2020/12/02 04:56:50;;;;;;;;;;;;;;;0.72;72.41;95225.59;5074428;28;20429;-77
2020/12/02 04:59:16;;;;;;;;;;;;;;;0.92;71.82;95223.28;5074104;28;19916;-77
2020/12/02 05:01:47;;;;;;;;;;;;;;;0.52;72.56;95218.25;5091875;28;19923;-78
2020/12/02 05:04:15;;;;;;;;;;;;;;;0.19;74.18;95229.47;5074125;28;19955;-77
2020/12/02 05:06:42;;;;;;;;;;;;;;;0.43;73.46;95222.28;5074207;28;19916;-77
2020/12/02 05:09:07;;;;;;;;;;;;;;;0.69;73.09;95221.63;5074595;28;20014;-77
2020/12/02 05:11:32;;;;;;;;;;;;;;;0.87;72.41;95217.97;5073953;28;19951;-76
2020/12/02 05:13:59;;;;;;;;;;;;;;;0.88;71.85;95214.31;5092236;28;19923;-76
2020/12/02 05:16:24;;;;;;;;;;;;;;;0.60;72.48;95217.03;5077939;28;20301;-77
2020/12/02 05:18:57;;;;;;;;;;;;;;;0.71;72.51;95211.69;5095973;28;19920;-76
2020/12/02 05:21:22;;;;;;;;;;;;;;;0.98;72.05;95203.97;5077708;28;19916;-76
2020/12/02 05:24:17;;;;;;;;;;;;;;;0.82;71.88;95212.66;5078010;28;20300;-76
2020/12/02 05:26:44;;;;;;;;;;;;;;;0.84;72.25;95210.59;5074027;28;19916;-76
2020/12/02 05:29:22;;;;;;;;;;;;;;;0.63;72.22;95216.56;5095649;28;20131;-76
2020/12/02 05:31:47;;;;;;;;;;;;;;;0.93;72.26;95210.97;5077216;28;19916;-75
2020/12/02 05:34:17;;;;;;;;;;;;;;;1.09;71.89;95212.75;5077524;28;20020;-76
2020/12/02 05:36:44;;;;;;;;;;;;;;;1.25;71.39;95219.78;5077452;28;19973;-76
2020/12/02 05:39:28;;;;;;;;;;;;;;;0.85;71.98;95214.00;5077433;28;20019;-76
2020/12/02 05:41:54;;;;;;;;;;;;;;;0.78;72.40;95222.81;5095262;28;19959;-75
2020/12/02 05:44:27;;;;;;;;;;;;;;;0.77;72.46;95223.06;5077222;28;19920;-76
2020/12/02 05:46:56;;;;;;;;;;;;;;;0.90;72.08;95227.16;5077609;28;20180;-75
2020/12/02 05:49:41;;;;;;;;;;;;;;;0.76;70.96;95226.69;5077306;28;19916;-77
2020/12/02 05:52:32;;;;;;;;;;;;;;;0.77;71.11;95230.91;5077016;28;19991;-76
2020/12/02 05:55:16;;;;;;;;;;;;;;;0.80;71.35;95227.03;5090399;28;19930;-75
2020/12/02 05:57:51;;;;;;;;;;;;;;;0.64;71.59;95226.00;5077139;28;20324;-76
2020/12/02 06:00:17;;;;;;;;;;;;;;;0.12;72.26;95234.06;5076928;28;19919;-76
2020/12/02 06:02:43;;;;;;;;;;;;;;;0.15;72.41;95228.34;5076194;28;19916;-77
2020/12/02 06:05:10;;;;;;;;;;;;;;;0.21;72.29;95237.91;5095217;28;20010;-76
2020/12/02 06:07:53;;;;;;;;;;;;;;;0.27;72.12;95239.56;5077065;28;19922;-76
2020/12/02 06:10:44;;;;;;;;;;;;;;;0.08;72.91;95235.56;5076725;28;19916;-76
2020/12/02 06:13:13;;;;;;;;;;;;;;;-0.15;73.75;95232.03;5055708;28;19916;-75
2020/12/02 06:15:39;;;;;;;;;;;;;;;-0.15;73.78;95231.25;5076970;28;19916;-75
2020/12/02 06:18:13;;;;;;;;;;;;;;;0.19;73.41;95234.69;5076865;28;19923;-75
2020/12/02 06:20:43;;;;;;;;;;;;;;;0.04;72.49;95224.78;5076861;28;19924;-75
2020/12/02 06:23:08;;;;;;;;;;;;;;;0.17;72.59;95229.72;5076610;28;19916;-75
2020/12/02 06:25:39;;;;;;;;;;;;;;;0.35;72.40;95231.31;5094581;28;19942;-76
2020/12/02 06:28:04;;;;;;;;;;;;;;;0.55;70.98;95232.66;5075890;28;19920;-76
2020/12/02 06:30:30;;;;;;;;;;;;;;;0.53;70.44;95227.69;5076165;28;19927;-76
2020/12/02 06:32:59;;;;;;;;;;;;;;;0.47;69.66;95229.41;5093834;28;20258;-76
2020/12/02 06:35:25;;;;;;;;;;;;;;;0.64;69.89;95232.03;5076211;28;19916;-76
2020/12/02 06:38:09;;;;;;;;;;;;;;;0.64;69.89;95226.00;5076397;28;19927;-75
2020/12/02 06:40:34;;;;;;;;;;;;;;;0.77;69.41;95228.31;5076049;28;19955;-68
2020/12/02 06:43:04;;;;;;;;;;;;;;;0.94;69.18;95228.28;5093989;28;20360;-76
2020/12/02 06:45:30;;;;;;;;;;;;;;;1.19;68.63;95230.44;5094699;28;19969;-73
2020/12/02 06:47:55;;;;;;;;;;;;;;;0.94;68.17;95230.88;5075872;28;20331;-73
2020/12/02 06:50:25;;;;;;;;;;;;;;;1.00;68.11;95224.69;5075725;28;19916;-71
2020/12/02 06:52:51;;;;;;;;;;;;;;;0.82;68.47;95228.38;5093927;28;20711;-71
2020/12/02 06:55:16;;;;;;;;;;;;;;;0.77;68.89;95230.91;5094094;28;19916;-68
2020/12/02 06:57:41;;;;;;;;;;;;;;;0.80;68.97;95233.03;5094073;28;20016;-71
2020/12/02 07:00:08;;;;;;;;;;;;;;;0.44;69.19;95240.34;5075804;28;20297;-71
2020/12/02 07:02:42;;;;;;;;;;;;;;;0.35;69.63;95231.31;5093901;28;19915;-69
2020/12/02 07:05:11;;;;;;;;;;;;;;;0.14;69.84;95239.84;5094019;28;19923;-79
2020/12/02 07:07:36;;;;;;;;;;;;;;;0.38;69.95;95238.69;5094113;28;19924;-72
2020/12/02 07:10:01;;;;;;;;;;;;;;;0.42;69.43;95236.41;5093165;28;19917;-72
2020/12/02 07:12:27;;;;;;;;;;;;;;;0.58;69.26;95226.97;5077758;28;19923;-72
2020/12/02 07:14:58;;;;;;;;;;;;;;;0.62;68.59;95228.88;5093710;28;20274;-72
2020/12/02 07:17:23;;;;;;;;;;;;;;;0.58;67.98;95224.34;5075567;28;20326;-71
2020/12/02 07:19:48;;;;;;;;;;;;;;;0.56;68.02;95237.66;5075580;28;20365;-77
2020/12/02 07:22:18;;;;;;;;;;;;;;;0.69;67.83;95231.31;5096731;28;19924;-72
2020/12/02 07:24:45;;;;;;;;;;;;;;;0.38;68.37;95243.91;5101926;28;19970;-70
2020/12/02 07:27:11;;;;;;;;;;;;;;;0.27;68.97;95242.19;5096470;28;19916;-74
2020/12/02 07:29:36;;;;;;;;;;;;;;;0.16;69.79;95240.41;5093228;28;20418;-73
2020/12/02 07:32:04;;;;;;;;;;;;;;;0.02;70.10;95237.31;5092788;28;20434;-68
2020/12/02 07:34:31;;;;;;;;;;;;;;;-0.03;70.29;95234.59;5093395;28;19916;-78
2020/12/02 07:37:00;;;;;;;;;;;;;;;0.33;69.75;95232.59;5075175;28;19924;-73
2020/12/02 07:39:26;;;;;;;;;;;;;;;-0.17;70.14;95228.06;5092824;28;20388;-74
2020/12/02 07:41:54;;;;;;;;;;;;;;;0.26;70.17;95232.75;5092973;28;19955;-74
2020/12/02 07:44:20;;;;;;;;;;;;;;;0.59;69.44;95221.47;5093314;28;19917;-71
2020/12/02 07:46:47;;;;;;;;;;;;;;;0.90;69.00;95225.34;5092872;28;19923;-71
2020/12/02 07:49:13;;;;;;;;;;;;;;;1.11;68.37;95215.13;5092560;28;19931;-73
2020/12/02 07:51:42;;;;;;;;;;;;;;;1.17;67.37;95222.81;5092846;28;19923;-72
2020/12/02 07:54:20;;;;;;;;;;;;;;;1.33;67.11;95215.94;5092963;28;20050;-73
2020/12/02 07:56:46;;;;;;;;;;;;;;;1.46;66.61;95218.19;5092799;28;19925;-70
2020/12/02 07:59:16;;;;;;;;;;;;;;;1.51;65.25;95215.63;5092658;28;19916;-71
2020/12/02 08:01:44;;;;;;;;;;;;;;;1.71;65.43;95211.66;5092225;28;19923;-70
2020/12/02 08:04:34;;;;;;;;;;;;;;;1.77;65.01;95206.22;5092570;28;19916;-70
2020/12/02 08:06:59;;;;;;;;;;;;;;;1.88;64.49;95207.09;5079747;28;20373;-71
2020/12/02 08:09:24;;;;;;;;;;;;;;;1.90;64.51;95194.56;5092436;28;19952;-71
2020/12/02 08:11:49;;;;;;;;;;;;;;;1.59;64.39;95192.63;5092236;28;20026;-71
2020/12/02 08:14:25;;;;;;;;;;;;;;;1.42;65.08;95188.25;5074866;28;19939;-71
2020/12/02 08:16:52;;;;;;;;;;;;;;;1.30;64.83;95191.00;5092756;28;20006;-71
2020/12/02 08:19:29;;;;;;;;;;;;;;;1.25;65.42;95188.34;5092281;28;19916;-71
2020/12/02 08:21:54;;;;;;;;;;;;;;;1.54;65.26;95183.69;5092240;28;19916;-71
2020/12/02 08:24:19;;;;;;;;;;;;;;;1.70;64.61;95179.41;5092364;28;19930;-72
2020/12/02 08:26:46;;;;;;;;;;;;;;;1.83;64.30;95178.22;5074233;28;20003;-72
2020/12/02 08:29:11;;;;;;;;;;;;;;;1.95;63.80;95170.22;5092233;28;19916;-72
2020/12/02 08:31:38;;;;;;;;;;;;;;;2.08;63.36;95173.19;5092089;28;19916;-72
2020/12/02 08:34:26;;;;;;;;;;;;;;;2.15;62.81;95180.88;5074236;28;19923;-70
2020/12/02 08:37:12;;;;;;;;;;;;;;;2.21;62.20;95168.59;5078816;28;19920;-72
2020/12/02 08:39:39;;;;;;;;;;;;;;;2.28;61.75;95169.16;5091788;28;19965;-72
2020/12/02 08:42:04;;;;;;;;;;;;;;;2.35;62.06;95180.22;5074015;28;19916;-71
2020/12/02 08:44:29;;;;;;;;;;;;;;;2.45;61.74;95177.69;5092309;28;19924;-72
2020/12/02 08:47:07;;;;;;;;;;;;;;;2.29;61.33;95183.88;5074178;28;19916;-71
2020/12/02 08:49:33;;;;;;;;;;;;;;;2.13;61.76;95182.16;5092716;28;19920;-70
2020/12/02 08:51:58;;;;;;;;;;;;;;;2.24;61.57;95183.81;5096170;28;19920;-71
2020/12/02 08:54:25;;;;;;;;;;;;;;;2.22;62.00;95180.66;5096312;28;20105;-73
2020/12/02 08:56:53;;;;;;;;;;;;;;;2.34;62.23;95186.53;5096274;28;20004;-71
2020/12/02 08:59:18;;;;;;;;;;;;;;;2.18;61.12;95187.44;5096551;28;19923;-71
2020/12/02 09:01:43;;;;;;;;;;;;;;;2.30;60.72;95175.75;5095456;28;19916;-71
2020/12/02 09:04:08;;;;;;;;;;;;;;;2.39;60.35;95177.91;5095934;28;19920;-71
2020/12/02 09:06:34;;;;;;;;;;;;;;;2.13;60.99;95180.31;5095863;28;19919;-71
2020/12/02 09:09:00;;;;;;;;;;;;;;;2.00;61.22;95165.78;5095855;28;19916;-71
2020/12/02 09:11:27;;;;;;;;;;;;;;;2.20;61.47;95162.56;5095990;28;19971;-71
2020/12/02 09:13:52;;;;;;;;;;;;;;;2.04;61.32;95168.69;5096054;28;20292;-71
2020/12/02 09:16:19;;;;;;;;;;;;;;;1.98;61.59;95175.72;5095862;28;19916;-72
2020/12/02 09:18:44;;;;;;;;;;;;;;;1.45;62.29;95177.31;5095802;28;19912;-71
2020/12/02 09:21:09;;;;;;;;;;;;;;;1.73;62.93;95173.66;5077724;28;19995;-72
2020/12/02 09:23:34;;;;;;;;;;;;;;;1.93;62.53;95167.81;5077574;28;19922;-73
2020/12/02 09:26:00;;;;;;;;;;;;;;;2.12;62.35;95163.00;5095727;28;19959;-72
2020/12/02 09:28:25;;;;;;;;;;;;;;;1.95;61.76;95160.50;5077806;28;19924;-70
2020/12/02 09:30:50;;;;;;;;;;;;;;;2.06;61.56;95164.00;5094965;28;19920;-71
2020/12/02 09:33:15;;;;;;;;;;;;;;;2.21;60.94;95164.13;5093363;28;19927;-70
2020/12/02 09:35:40;;;;;;;;;;;;;;;2.21;61.21;95164.13;5094382;28;19943;-70
2020/12/02 09:38:08;;;;;;;;;;;;;;;2.02;61.62;95161.06;5094178;28;19951;-64
2020/12/02 09:40:33;;;;;;;;;;;;;;;2.11;61.74;95147.50;5076068;28;19927;-69
2020/12/02 09:43:05;;;;;;;;;;;;;;;2.03;61.48;95152.16;5094193;28;19916;-69
2020/12/02 09:45:40;;;;;;;;;;;;;;;1.91;62.08;95150.75;5094817;28;19924;-70
2020/12/02 09:48:14;;;;;;;;;;;;;;;2.08;62.23;95151.41;5095502;28;19916;-71
2020/12/02 09:50:39;;;;;;;;;;;;;;;2.30;61.44;95146.06;5076989;28;19923;-71
2020/12/02 09:53:13;;;;;;;;;;;;;;;2.48;60.75;95144.91;5094921;28;19916;-71
2020/12/02 09:55:38;;;;;;;;;;;;;;;2.71;60.46;95134.00;5095261;28;19926;-72
2020/12/02 09:58:03;;;;;;;;;;;;;;;2.58;59.38;95131.84;5095209;28;19916;-69
2020/12/02 10:00:29;;;;;;;;;;;;;;;1.61;60.43;95122.41;5076260;28;19922;-70
2020/12/02 10:02:57;;;;;;;;;;;;;;;2.14;61.22;95131.25;5093270;28;20010;-69
2020/12/02 10:05:34;;;;;;;;;;;;;;;2.30;61.07;95125.06;5095039;28;19916;-69
2020/12/02 10:08:18;;;;;;;;;;;;;;;2.49;60.18;95121.00;5076839;28;19923;-72
2020/12/02 10:10:43;;;;;;;;;;;;;;;2.65;60.11;95127.13;5076944;28;19942;-71
2020/12/02 10:13:28;;;;;;;;;;;;;;;2.76;59.59;95130.63;5095097;28;20294;-80
2020/12/02 10:15:59;;;;;;;;;;;;;;;2.42;61.51;95128.31;5094826;28;19916;-70
2020/12/02 10:18:27;;;;;;;;;;;;;;;2.32;61.01;95120.38;5094696;28;19959;-71
2020/12/02 10:21:03;;;;;;;;;;;;;;;2.57;60.33;95114.50;5077018;28;19951;-80
2020/12/02 10:23:37;;;;;;;;;;;;;;;2.77;59.84;95119.09;5094717;28;19916;-71
2020/12/02 10:26:03;;;;;;;;;;;;;;;2.90;59.11;95102.84;5094800;28;19916;-68
2020/12/02 10:28:34;;;;;;;;;;;;;;;3.13;59.57;95107.69;5094384;28;19923;-69
2020/12/02 10:31:19;;;;;;;;;;;;;;;3.20;58.59;95096.13;5076998;28;19916;-70
2020/12/02 10:33:44;;;;;;;;;;;;;;;3.00;57.53;95099.47;5094522;28;19931;-77
2020/12/02 10:36:09;;;;;;;;;;;;;;;2.83;58.08;95095.19;5076701;28;19938;-74
2020/12/02 10:38:55;;;;;;;;;;;;;;;2.99;58.29;95096.06;5094591;28;20289;-77
2020/12/02 10:41:46;;;;;;;;;;;;;;;2.48;58.36;95095.81;5075687;28;19916;-79
2020/12/02 10:44:24;;;;;;;;;;;;;;;2.21;60.07;95090.66;5071551;28;19916;-77
2020/12/02 10:46:58;;;;;;;;;;;;;;;2.33;59.98;95083.38;5076365;28;19938;-78
2020/12/02 10:49:28;;;;;;;;;;;;;;;2.33;59.90;95083.38;5076354;28;19965;-79
2020/12/02 10:51:55;;;;;;;;;;;;;;;2.52;59.81;95081.13;5075982;28;19931;-71
2020/12/02 10:54:22;;;;;;;;;;;;;;;2.44;58.90;95071.09;5075992;28;19917;-73
2020/12/02 10:56:51;;;;;;;;;;;;;;;2.43;58.96;95072.16;5094078;28;19920;-72
2020/12/02 10:59:16;;;;;;;;;;;;;;;2.59;59.25;95063.28;5093762;28;19916;-72
2020/12/02 11:01:42;;;;;;;;;;;;;;;2.44;58.93;95065.06;5075131;28;19948;-72
2020/12/02 11:04:08;;;;;;;;;;;;;;;2.21;59.38;95058.38;5094070;28;19924;-71
2020/12/02 11:06:48;;;;;;;;;;;;;;;2.46;59.51;95053.28;5093790;28;19916;-71
2020/12/02 11:09:28;;;;;;;;;;;;;;;2.59;59.58;95052.78;5093576;28;19923;-71
2020/12/02 11:12:13;;;;;;;;;;;;;;;2.86;58.72;95042.13;5093610;28;19919;-72
2020/12/02 11:14:51;;;;;;;;;;;;;;;2.89;57.61;95037.44;5075680;28;20280;-72
2020/12/02 11:17:23;;;;;;;;;;;;;;;2.77;58.53;95040.28;5093689;28;19917;-72
2020/12/02 11:19:56;;;;;;;;;;;;;;;2.99;58.56;95037.47;5093348;28;19912;-72
2020/12/02 11:22:24;;;;;;;;;;;;;;;2.89;58.23;95035.59;5093411;28;20265;-73
2020/12/02 11:25:08;;;;;;;;;;;;;;;2.84;59.07;95038.19;5075205;28;19923;-72
2020/12/02 11:27:34;;;;;;;;;;;;;;;2.70;58.98;95034.47;5075302;28;20284;-72
2020/12/02 11:30:00;;;;;;;;;;;;;;;2.20;60.06;95025.28;5093089;28;19916;-71
2020/12/02 11:32:54;;;;;;;;;;;;;;;1.88;60.95;95020.88;5074357;28;20007;-72
2020/12/02 11:35:31;;;;;;;;;;;;;;;2.10;61.23;95020.78;5089595;28;19922;-72
2020/12/02 11:38:31;;;;;;;;;;;;;;;2.28;60.46;95020.34;5093586;28;19999;-72
2020/12/02 11:41:15;;;;;;;;;;;;;;;1.99;60.71;95006.78;4991401;28;19922;-72
2020/12/02 11:43:42;;;;;;;;;;;;;;;1.65;61.85;95002.91;5066754;28;19920;-71
2020/12/02 11:46:09;;;;;;;;;;;;;;;1.78;62.05;95003.25;5093186;28;19961;-72
2020/12/02 11:48:38;;;;;;;;;;;;;;;1.97;61.45;95002.84;5092802;28;19916;-71
2020/12/02 11:51:17;;;;;;;;;;;;;;;1.63;61.88;94997.88;5093088;28;19923;-71
2020/12/02 11:53:56;;;;;;;;;;;;;;;2.03;61.32;94994.75;5092972;28;19923;-71
2020/12/02 11:56:36;;;;;;;;;;;;;;;1.95;61.50;94989.22;5092974;28;19924;-71
2020/12/02 11:59:04;;;;;;;;;;;;;;;1.48;61.72;94984.66;5092353;28;19927;-71
2020/12/02 12:01:32;;;;;;;;;;;;;;;1.53;62.08;94985.47;5092126;28;20009;-72
2020/12/02 12:04:05;;;;;;;;;;;;;;;1.33;62.53;94982.69;5092476;28;19916;-72
2020/12/02 12:06:30;;;;;;;;;;;;;;;1.41;62.71;94992.75;5092880;28;19923;-72
2020/12/02 12:09:01;;;;;;;;;;;;;;;1.48;63.05;94982.81;5092617;28;19916;-72
2020/12/02 12:11:37;;;;;;;;;;;;;;;1.40;63.05;94980.69;5092399;28;19920;-71
2020/12/02 12:14:27;;;;;;;;;;;;;;;1.25;63.27;94980.56;5092713;28;19916;-71
2020/12/02 12:17:11;;;;;;;;;;;;;;;1.18;63.91;94977.34;5074654;28;19923;-72
2020/12/02 12:20:01;;;;;;;;;;;;;;;1.52;63.30;94978.66;5092136;28;19938;-71
2020/12/02 12:22:29;;;;;;;;;;;;;;;1.66;62.31;94980.88;5092175;28;19916;-70
2020/12/02 12:25:06;;;;;;;;;;;;;;;1.70;61.91;94971.47;5091270;28;19916;-72
2020/12/02 12:27:31;;;;;;;;;;;;;;;1.82;62.16;94970.22;5092479;28;19925;-72
2020/12/02 12:29:57;;;;;;;;;;;;;;;1.75;62.29;94974.13;5092264;28;20388;-70
2020/12/02 12:32:41;;;;;;;;;;;;;;;1.60;62.50;94960.91;5091496;28;19916;-72
2020/12/02 12:35:11;;;;;;;;;;;;;;;1.61;62.64;94960.66;5092241;28;20305;-70
2020/12/02 12:38:12;;;;;;;;;;;;;;;1.62;63.03;94951.75;5092280;28;19920;-71
2020/12/02 12:40:40;;;;;;;;;;;;;;;1.40;63.21;94938.75;4973843;28;19918;-71
2020/12/02 12:43:09;;;;;;;;;;;;;;;1.06;63.69;94938.19;5072165;28;19916;-71
2020/12/02 12:45:38;;;;;;;;;;;;;;;1.14;63.97;94935.13;5073977;28;20376;-71
2020/12/02 12:48:04;;;;;;;;;;;;;;;1.24;63.54;94934.44;5074167;28;19911;-73
2020/12/02 12:50:30;;;;;;;;;;;;;;;1.10;63.88;94928.03;5092534;28;19916;-70
2020/12/02 12:53:00;;;;;;;;;;;;;;;1.40;63.25;94930.09;5092034;28;19919;-70
2020/12/02 12:55:25;;;;;;;;;;;;;;;1.09;63.39;94935.09;5091999;28;20357;-71
2020/12/02 12:57:51;;;;;;;;;;;;;;;1.03;63.24;94929.03;5074124;28;19920;-69
2020/12/02 13:00:17;;;;;;;;;;;;;;;0.70;64.80;94926.59;5091898;28;20369;-70
2020/12/02 13:02:43;;;;;;;;;;;;;;;1.10;64.27;94925.41;5091345;28;19917;-70
2020/12/02 13:05:11;;;;;;;;;;;;;;;0.88;64.38;94928.88;5092033;28;20301;-71
2020/12/02 13:07:38;;;;;;;;;;;;;;;1.05;63.71;94928.78;5092143;28;19925;-70